createdAt,value
2018-08-09T00:00:16.031Z,21.12
2018-08-09T00:01:22.604Z,21.11
2018-08-09T00:02:29.177Z,21.19
2018-08-09T00:03:35.750Z,21.24
2018-08-09T00:04:42.317Z,21.21
2018-08-09T00:05:48.887Z,21.20
2018-08-09T00:06:55.458Z,21.17
2018-08-09T00:08:02.038Z,21.16
2018-08-09T00:09:08.601Z,21.15
2018-08-09T00:10:15.176Z,21.16
2018-08-09T00:11:21.738Z,21.13
2018-08-09T00:12:28.323Z,21.12
2018-08-09T00:13:34.899Z,21.16
2018-08-09T00:14:41.466Z,21.14
2018-08-09T00:15:48.042Z,21.09
2018-08-09T00:16:54.614Z,21.02
2018-08-09T00:18:01.189Z,21.00
2018-08-09T00:19:07.752Z,21.01
2018-08-09T00:20:14.321Z,21.04
2018-08-09T00:21:20.904Z,21.03
2018-08-09T00:22:27.475Z,20.99
2018-08-09T00:23:34.053Z,20.98
2018-08-09T00:24:40.614Z,20.96
2018-08-09T00:25:47.189Z,21.02
2018-08-09T00:26:53.754Z,20.99
2018-08-09T00:28:00.849Z,20.97
2018-08-09T00:29:06.899Z,20.98
2018-08-09T00:30:13.473Z,20.97
2018-08-09T00:31:20.037Z,20.94
2018-08-09T00:32:26.611Z,20.92
2018-08-09T00:33:33.189Z,20.86
2018-08-09T00:34:39.762Z,20.81
2018-08-09T00:35:46.320Z,20.77
2018-08-09T00:36:52.901Z,20.69
2018-08-09T00:37:59.469Z,20.64
2018-08-09T00:39:06.041Z,20.66
2018-08-09T00:40:12.609Z,20.68
2018-08-09T00:41:19.170Z,20.70
2018-08-09T00:42:25.762Z,20.72
2018-08-09T00:43:32.322Z,20.73
2018-08-09T00:44:38.884Z,20.76
2018-08-09T00:45:45.449Z,20.72
2018-08-09T00:46:52.024Z,20.71
2018-08-09T00:47:58.587Z,20.65
2018-08-09T00:49:05.142Z,20.63
2018-08-09T00:50:11.706Z,20.63
2018-08-09T00:51:18.267Z,20.65
2018-08-09T00:52:24.836Z,20.64
2018-08-09T00:53:31.404Z,20.62
2018-08-09T00:54:37.955Z,20.59
2018-08-09T00:55:44.515Z,20.61
2018-08-09T00:56:51.094Z,20.63
2018-08-09T00:57:58.155Z,20.63
2018-08-09T00:59:04.222Z,20.66
2018-08-09T01:00:10.779Z,20.65
2018-08-09T01:01:17.347Z,20.65
2018-08-09T01:02:23.907Z,20.63
2018-08-09T01:03:30.479Z,20.59
2018-08-09T01:04:37.040Z,20.58
2018-08-09T01:05:43.625Z,20.56
2018-08-09T01:06:50.161Z,20.51
2018-08-09T01:07:56.741Z,20.51
2018-08-09T01:09:03.305Z,20.49
2018-08-09T01:10:10.357Z,20.48
2018-08-09T01:11:16.442Z,20.50
2018-08-09T01:12:22.980Z,20.50
2018-08-09T01:13:29.530Z,20.49
2018-08-09T01:14:36.089Z,20.48
2018-08-09T01:15:42.650Z,20.43
2018-08-09T01:16:49.232Z,20.41
2018-08-09T01:17:55.774Z,20.40
2018-08-09T01:19:02.327Z,20.38
2018-08-09T01:20:08.889Z,20.41
2018-08-09T01:21:15.450Z,20.42
2018-08-09T01:22:22.003Z,20.40
2018-08-09T01:23:28.572Z,20.40
2018-08-09T01:24:35.118Z,20.42
2018-08-09T01:25:41.677Z,20.45
2018-08-09T01:26:49.283Z,20.51
2018-08-09T01:27:54.802Z,20.55
2018-08-09T01:29:01.352Z,20.52
2018-08-09T01:30:07.903Z,20.48
2018-08-09T01:31:14.463Z,20.51
2018-08-09T01:32:21.022Z,20.51
2018-08-09T01:33:27.581Z,20.47
2018-08-09T01:34:34.168Z,20.44
2018-08-09T01:35:40.696Z,20.42
2018-08-09T01:36:47.736Z,20.39
2018-08-09T01:37:53.816Z,20.35
2018-08-09T01:39:00.363Z,20.36
2018-08-09T01:40:06.917Z,20.33
2018-08-09T01:41:14.055Z,20.34
2018-08-09T01:42:20.029Z,20.30
2018-08-09T01:43:26.578Z,20.23
2018-08-09T01:44:33.132Z,20.19
2018-08-09T01:45:39.686Z,20.14
2018-08-09T01:46:46.246Z,20.08
2018-08-09T01:47:52.786Z,20.11
2018-08-09T01:48:59.352Z,20.14
2018-08-09T01:50:05.892Z,20.21
2018-08-09T01:51:12.441Z,20.27
2018-08-09T01:52:19.001Z,20.25
2018-08-09T01:53:25.561Z,20.23
2018-08-09T01:54:32.103Z,20.19
2018-08-09T01:55:38.643Z,20.11
2018-08-09T01:56:45.192Z,20.04
2018-08-09T01:57:51.748Z,20.00
2018-08-09T01:58:58.308Z,19.97
2018-08-09T02:00:04.853Z,19.96
2018-08-09T02:01:11.388Z,19.95
2018-08-09T02:02:17.947Z,19.91
2018-08-09T02:03:24.492Z,19.89
2018-08-09T02:04:31.031Z,19.85
2018-08-09T02:05:37.576Z,19.84
2018-08-09T02:06:44.134Z,19.81
2018-08-09T02:07:51.267Z,19.78
2018-08-09T02:08:57.224Z,19.77
2018-08-09T02:10:03.768Z,19.87
2018-08-09T02:11:10.311Z,19.97
2018-08-09T02:12:16.849Z,19.97
2018-08-09T02:13:23.409Z,20.00
2018-08-09T02:14:29.937Z,20.03
2018-08-09T02:15:36.479Z,20.08
2018-08-09T02:16:43.034Z,20.07
2018-08-09T02:17:49.572Z,20.07
2018-08-09T02:18:56.123Z,20.02
2018-08-09T02:20:02.657Z,20.04
2018-08-09T02:21:09.205Z,20.04
2018-08-09T02:22:16.773Z,20.03
2018-08-09T02:23:22.304Z,20.01
2018-08-09T02:24:28.868Z,19.99
2018-08-09T02:25:35.384Z,19.94
2018-08-09T02:26:41.994Z,19.95
2018-08-09T02:27:48.475Z,20.00
2018-08-09T02:28:55.022Z,19.97
2018-08-09T02:30:01.564Z,19.94
2018-08-09T02:31:08.096Z,19.93
2018-08-09T02:32:14.649Z,19.88
2018-08-09T02:33:21.280Z,19.79
2018-08-09T02:34:27.738Z,19.76
2018-08-09T02:35:34.262Z,19.76
2018-08-09T02:36:40.814Z,19.77
2018-08-09T02:37:47.347Z,19.82
2018-08-09T02:38:53.897Z,19.90
2018-08-09T02:40:00.430Z,19.91
2018-08-09T02:41:07.471Z,19.86
2018-08-09T02:42:13.520Z,19.79
2018-08-09T02:43:20.053Z,19.73
2018-08-09T02:44:26.601Z,19.71
2018-08-09T02:45:33.146Z,19.72
2018-08-09T02:46:39.701Z,19.74
2018-08-09T02:47:46.219Z,19.81
2018-08-09T02:48:52.760Z,19.80
2018-08-09T02:49:59.292Z,19.77
2018-08-09T02:51:05.821Z,19.71
2018-08-09T02:52:12.373Z,19.80
2018-08-09T02:53:18.899Z,19.82
2018-08-09T02:54:25.473Z,19.79
2018-08-09T02:55:31.981Z,19.75
2018-08-09T02:56:38.520Z,19.71
2018-08-09T02:57:45.049Z,19.70
2018-08-09T02:58:51.588Z,19.65
2018-08-09T02:59:58.124Z,19.64
2018-08-09T03:01:04.660Z,19.61
2018-08-09T03:02:11.200Z,19.61
2018-08-09T03:03:17.734Z,19.62
2018-08-09T03:04:24.801Z,19.67
2018-08-09T03:05:30.802Z,19.70
2018-08-09T03:06:37.341Z,19.69
2018-08-09T03:07:43.864Z,19.67
2018-08-09T03:08:50.414Z,19.65
2018-08-09T03:09:56.945Z,19.65
2018-08-09T03:11:03.477Z,19.61
2018-08-09T03:12:10.011Z,19.56
2018-08-09T03:13:16.550Z,19.48
2018-08-09T03:14:23.077Z,19.42
2018-08-09T03:15:29.603Z,19.38
2018-08-09T03:16:36.136Z,19.37
2018-08-09T03:17:42.666Z,19.42
2018-08-09T03:18:49.209Z,19.48
2018-08-09T03:19:55.726Z,19.48
2018-08-09T03:21:02.267Z,19.42
2018-08-09T03:22:08.794Z,19.34
2018-08-09T03:23:15.331Z,19.27
2018-08-09T03:24:21.926Z,19.27
2018-08-09T03:25:28.382Z,19.27
2018-08-09T03:26:35.407Z,19.26
2018-08-09T03:27:41.431Z,19.21
2018-08-09T03:28:47.962Z,19.18
2018-08-09T03:29:54.499Z,19.18
2018-08-09T03:31:01.019Z,19.16
2018-08-09T03:32:07.544Z,19.15
2018-08-09T03:33:14.077Z,19.13
2018-08-09T03:34:20.595Z,19.12
2018-08-09T03:35:27.122Z,19.11
2018-08-09T03:36:33.641Z,19.09
2018-08-09T03:37:40.184Z,19.12
2018-08-09T03:38:46.689Z,19.18
2018-08-09T03:39:53.220Z,19.24
2018-08-09T03:40:59.744Z,19.25
2018-08-09T03:42:06.260Z,19.26
2018-08-09T03:43:12.775Z,19.27
2018-08-09T03:44:20.311Z,19.35
2018-08-09T03:45:25.827Z,19.43
2018-08-09T03:46:32.359Z,19.45
2018-08-09T03:47:38.862Z,19.46
2018-08-09T03:48:45.391Z,19.48
2018-08-09T03:49:52.416Z,19.49
2018-08-09T03:50:58.436Z,19.44
2018-08-09T03:52:04.966Z,19.42
2018-08-09T03:53:11.951Z,19.39
2018-08-09T03:54:18.015Z,19.36
2018-08-09T03:55:24.528Z,19.34
2018-08-09T03:56:31.063Z,19.34
2018-08-09T03:57:37.578Z,19.35
2018-08-09T03:58:44.106Z,19.31
2018-08-09T03:59:50.631Z,19.32
2018-08-09T04:00:57.147Z,19.32
2018-08-09T04:02:03.679Z,19.31
2018-08-09T04:03:10.208Z,19.30
2018-08-09T04:04:16.736Z,19.31
2018-08-09T04:05:23.749Z,19.30
2018-08-09T04:06:29.780Z,19.30
2018-08-09T04:07:36.300Z,19.36
2018-08-09T04:08:42.818Z,19.38
2018-08-09T04:09:49.854Z,19.42
2018-08-09T04:10:55.879Z,19.42
2018-08-09T04:12:02.457Z,19.43
2018-08-09T04:13:08.923Z,19.44
2018-08-09T04:14:15.455Z,19.42
2018-08-09T04:15:21.985Z,19.43
2018-08-09T04:16:28.514Z,19.47
2018-08-09T04:17:35.019Z,19.50
2018-08-09T04:18:41.548Z,19.53
2018-08-09T04:19:48.082Z,19.57
2018-08-09T04:20:54.624Z,19.57
2018-08-09T04:22:01.140Z,19.55
2018-08-09T04:23:08.159Z,19.56
2018-08-09T04:24:14.190Z,19.56
2018-08-09T04:25:20.724Z,19.58
2018-08-09T04:26:27.265Z,19.60
2018-08-09T04:27:33.773Z,19.59
2018-08-09T04:28:40.308Z,19.58
2018-08-09T04:29:46.853Z,19.56
2018-08-09T04:30:53.361Z,19.53
2018-08-09T04:31:59.897Z,19.52
2018-08-09T04:33:06.426Z,19.50
2018-08-09T04:34:12.959Z,19.47
2018-08-09T04:35:19.497Z,19.44
2018-08-09T04:36:26.019Z,19.44
2018-08-09T04:37:32.559Z,19.45
2018-08-09T04:38:39.075Z,19.47
2018-08-09T04:39:46.132Z,19.48
2018-08-09T04:40:52.646Z,19.48
2018-08-09T04:41:58.691Z,19.51
2018-08-09T04:43:05.208Z,19.52
2018-08-09T04:44:11.793Z,19.55
2018-08-09T04:45:18.287Z,19.64
2018-08-09T04:46:24.815Z,19.69
2018-08-09T04:47:31.345Z,19.75
2018-08-09T04:48:37.880Z,19.78
2018-08-09T04:49:44.434Z,19.81
2018-08-09T04:50:50.974Z,19.82
2018-08-09T04:51:57.502Z,19.83
2018-08-09T04:53:04.039Z,19.83
2018-08-09T04:54:10.580Z,19.82
2018-08-09T04:55:17.139Z,19.84
2018-08-09T04:56:23.676Z,19.85
2018-08-09T04:57:30.209Z,19.87
2018-08-09T04:58:36.770Z,19.90
2018-08-09T04:59:43.307Z,19.92
2018-08-09T05:00:49.849Z,19.95
2018-08-09T05:01:56.392Z,19.94
2018-08-09T05:03:02.950Z,19.91
2018-08-09T05:04:09.481Z,19.87
2018-08-09T05:05:16.029Z,19.82
2018-08-09T05:06:22.567Z,19.79
2018-08-09T05:07:29.123Z,19.76
2018-08-09T05:08:35.668Z,19.77
2018-08-09T05:09:42.257Z,19.77
2018-08-09T05:10:48.747Z,19.79
2018-08-09T05:11:55.294Z,19.79
2018-08-09T05:13:01.844Z,19.80
2018-08-09T05:14:08.395Z,19.78
2018-08-09T05:15:14.943Z,19.76
2018-08-09T05:16:21.490Z,19.74
2018-08-09T05:17:28.028Z,19.72
2018-08-09T05:18:34.574Z,19.74
2018-08-09T05:19:41.125Z,19.73
2018-08-09T05:20:47.671Z,19.74
2018-08-09T05:21:54.211Z,19.73
2018-08-09T05:23:00.797Z,19.75
2018-08-09T05:24:08.316Z,19.76
2018-08-09T05:25:13.873Z,19.77
2018-08-09T05:26:20.422Z,19.80
2018-08-09T05:27:26.969Z,19.81
2018-08-09T05:28:33.523Z,19.83
2018-08-09T05:29:40.072Z,19.86
2018-08-09T05:30:46.628Z,19.89
2018-08-09T05:31:53.182Z,19.89
2018-08-09T05:32:59.730Z,19.91
2018-08-09T05:34:06.321Z,19.95
2018-08-09T05:35:12.840Z,19.98
2018-08-09T05:36:19.401Z,20.01
2018-08-09T05:37:25.957Z,20.04
2018-08-09T05:38:33.008Z,20.09
2018-08-09T05:39:39.085Z,20.13
2018-08-09T05:40:45.639Z,20.17
2018-08-09T05:41:52.285Z,20.22
2018-08-09T05:42:58.737Z,20.28
2018-08-09T05:44:05.304Z,20.33
2018-08-09T05:45:11.879Z,20.37
2018-08-09T05:46:18.921Z,20.43
2018-08-09T05:47:24.984Z,20.52
2018-08-09T05:48:31.553Z,20.58
2018-08-09T05:49:38.124Z,20.64
2018-08-09T05:50:44.689Z,20.69
2018-08-09T05:51:51.263Z,20.74
2018-08-09T05:52:57.952Z,20.79
2018-08-09T05:54:04.388Z,20.83
2018-08-09T05:55:10.955Z,20.87
2018-08-09T05:56:17.526Z,20.93
2018-08-09T05:57:24.107Z,20.98
2018-08-09T05:58:30.697Z,21.06
2018-08-09T05:59:37.256Z,21.11
2018-08-09T06:00:43.870Z,21.15
2018-08-09T06:01:50.896Z,21.19
2018-08-09T06:02:56.992Z,21.24
2018-08-09T06:04:03.584Z,21.27
2018-08-09T06:05:10.171Z,21.30
2018-08-09T06:06:17.258Z,21.32
2018-08-09T06:07:23.327Z,21.37
2018-08-09T06:08:29.911Z,21.42
2018-08-09T06:09:36.487Z,21.45
2018-08-09T06:10:43.082Z,21.49
2018-08-09T06:11:50.123Z,21.52
2018-08-09T06:12:56.249Z,21.54
2018-08-09T06:14:02.835Z,21.60
2018-08-09T06:15:09.453Z,21.65
2018-08-09T06:16:16.032Z,21.69
2018-08-09T06:17:22.622Z,21.75
2018-08-09T06:18:29.236Z,21.83
2018-08-09T06:19:35.803Z,21.92
2018-08-09T06:20:42.426Z,22.02
2018-08-09T06:21:49.030Z,22.10
2018-08-09T06:22:55.617Z,22.15
2018-08-09T06:24:02.223Z,22.19
2018-08-09T06:25:08.843Z,22.20
2018-08-09T06:26:15.528Z,22.24
2018-08-09T06:27:22.067Z,22.28
2018-08-09T06:28:29.170Z,22.33
2018-08-09T06:29:35.524Z,22.33
2018-08-09T06:30:41.909Z,22.38
2018-08-09T06:31:48.522Z,22.46
2018-08-09T06:32:55.134Z,22.55
2018-08-09T06:34:01.766Z,22.62
2018-08-09T06:35:08.891Z,22.71
2018-08-09T06:36:15.027Z,22.78
2018-08-09T06:37:21.696Z,22.86
2018-08-09T06:38:29.268Z,22.96
2018-08-09T06:39:34.904Z,23.07
2018-08-09T06:40:41.553Z,23.14
2018-08-09T06:41:48.277Z,23.18
2018-08-09T06:42:54.809Z,23.20
2018-08-09T06:44:01.440Z,23.21
2018-08-09T06:45:08.102Z,23.25
2018-08-09T06:46:14.736Z,23.32
2018-08-09T06:47:21.384Z,23.42
2018-08-09T06:48:28.017Z,23.51
2018-08-09T06:49:34.659Z,23.54
2018-08-09T06:50:41.318Z,23.56
2018-08-09T06:51:47.959Z,23.55
2018-08-09T06:52:54.601Z,23.56
2018-08-09T06:54:01.263Z,23.58
2018-08-09T06:55:07.925Z,23.59
2018-08-09T06:56:14.622Z,23.65
2018-08-09T06:57:21.249Z,23.67
2018-08-09T06:58:27.893Z,23.75
2018-08-09T06:59:34.547Z,23.82
2018-08-09T07:00:41.216Z,23.86
2018-08-09T07:01:47.868Z,23.89
2018-08-09T07:02:54.537Z,23.90
2018-08-09T07:04:01.197Z,23.96
2018-08-09T07:05:07.871Z,24.00
2018-08-09T07:06:14.543Z,24.07
2018-08-09T07:07:21.217Z,24.12
2018-08-09T07:08:27.892Z,24.10
2018-08-09T07:09:34.565Z,24.11
2018-08-09T07:10:41.255Z,24.11
2018-08-09T07:11:47.934Z,24.14
2018-08-09T07:12:54.688Z,24.18
2018-08-09T07:14:01.279Z,24.22
2018-08-09T07:15:07.978Z,24.26
2018-08-09T07:16:14.655Z,24.28
2018-08-09T07:17:21.342Z,24.29
2018-08-09T07:18:28.028Z,24.33
2018-08-09T07:19:34.727Z,24.40
2018-08-09T07:20:41.425Z,24.41
2018-08-09T07:21:48.116Z,24.44
2018-08-09T07:22:54.817Z,24.52
2018-08-09T07:24:01.534Z,24.60
2018-08-09T07:25:08.291Z,24.68
2018-08-09T07:26:14.951Z,24.71
2018-08-09T07:27:21.663Z,24.76
2018-08-09T07:28:28.373Z,24.84
2018-08-09T07:29:35.096Z,24.93
2018-08-09T07:30:41.831Z,25.04
2018-08-09T07:31:48.595Z,25.30
2018-08-09T07:32:55.315Z,25.58
2018-08-09T07:34:02.063Z,25.89
2018-08-09T07:35:08.829Z,26.30
2018-08-09T07:36:16.108Z,26.62
2018-08-09T07:37:22.397Z,26.93
2018-08-09T07:38:29.161Z,27.18
2018-08-09T07:39:36.122Z,27.23
2018-08-09T07:40:42.760Z,27.23
2018-08-09T07:41:49.568Z,27.22
2018-08-09T07:42:56.390Z,27.18
2018-08-09T07:44:03.213Z,27.26
2018-08-09T07:45:10.040Z,27.48
2018-08-09T07:46:16.873Z,27.53
2018-08-09T07:47:23.701Z,27.60
2018-08-09T07:48:30.564Z,27.60
2018-08-09T07:49:37.358Z,27.67
2018-08-09T07:50:44.296Z,27.65
2018-08-09T07:51:51.036Z,27.60
2018-08-09T07:52:57.886Z,27.40
2018-08-09T07:54:04.718Z,27.45
2018-08-09T07:55:11.571Z,27.52
2018-08-09T07:56:18.443Z,27.61
2018-08-09T07:57:25.303Z,27.76
2018-08-09T07:58:32.279Z,27.91
2018-08-09T07:59:39.056Z,28.08
2018-08-09T08:00:45.957Z,28.18
2018-08-09T08:01:52.812Z,28.29
2018-08-09T08:02:59.700Z,28.54
2018-08-09T08:04:06.595Z,28.81
2018-08-09T08:05:13.499Z,28.86
2018-08-09T08:06:20.415Z,29.03
2018-08-09T08:07:27.317Z,29.13
2018-08-09T08:08:34.250Z,29.36
2018-08-09T08:09:41.168Z,29.64
2018-08-09T08:10:49.107Z,29.84
2018-08-09T08:11:55.061Z,29.71
2018-08-09T08:13:02.006Z,29.82
2018-08-09T08:14:08.963Z,29.91
2018-08-09T08:15:15.893Z,30.02
2018-08-09T08:16:22.840Z,29.94
2018-08-09T08:17:29.778Z,29.83
2018-08-09T08:18:36.716Z,29.86
2018-08-09T08:19:43.681Z,29.84
2018-08-09T08:20:50.755Z,30.01
2018-08-09T08:21:57.595Z,30.13
2018-08-09T08:23:04.542Z,30.14
2018-08-09T08:24:11.506Z,30.22
2018-08-09T08:25:18.473Z,30.34
2018-08-09T08:26:25.450Z,30.37
2018-08-09T08:27:32.412Z,30.48
2018-08-09T08:28:39.388Z,30.49
2018-08-09T08:29:46.373Z,30.52
2018-08-09T08:30:53.367Z,30.54
2018-08-09T08:32:00.369Z,30.66
2018-08-09T08:33:07.380Z,30.70
2018-08-09T08:34:14.379Z,30.45
2018-08-09T08:35:21.408Z,30.12
2018-08-09T08:36:28.430Z,29.99
2018-08-09T08:37:35.451Z,29.88
2018-08-09T08:38:42.468Z,29.84
2018-08-09T08:39:49.500Z,29.80
2018-08-09T08:40:56.531Z,29.82
2018-08-09T08:42:03.561Z,29.77
2018-08-09T08:43:10.584Z,29.87
2018-08-09T08:44:17.616Z,30.00
2018-08-09T08:45:24.652Z,30.25
2018-08-09T08:46:31.726Z,30.52
2018-08-09T08:47:38.730Z,30.75
2018-08-09T08:48:45.784Z,31.01
2018-08-09T08:49:52.829Z,31.23
2018-08-09T08:50:59.885Z,31.49
2018-08-09T08:52:06.959Z,31.74
2018-08-09T08:53:14.076Z,31.89
2018-08-09T08:54:21.596Z,32.09
2018-08-09T08:55:29.148Z,32.36
2018-08-09T08:56:35.230Z,32.60
2018-08-09T08:57:42.303Z,32.76
2018-08-09T08:58:49.408Z,32.76
2018-08-09T08:59:56.477Z,32.84
2018-08-09T09:01:03.621Z,32.92
2018-08-09T09:02:10.677Z,32.96
2018-08-09T09:03:17.763Z,32.85
2018-08-09T09:04:24.888Z,32.78
2018-08-09T09:05:31.939Z,32.62
2018-08-09T09:06:39.022Z,32.67
2018-08-09T09:07:46.106Z,32.72
2018-08-09T09:08:53.199Z,32.68
2018-08-09T09:10:00.295Z,32.55
2018-08-09T09:11:07.390Z,32.72
2018-08-09T09:12:14.479Z,32.91
2018-08-09T09:13:22.087Z,33.07
2018-08-09T09:14:28.692Z,33.16
2018-08-09T09:15:35.814Z,33.33
2018-08-09T09:16:42.964Z,33.54
2018-08-09T09:17:50.088Z,33.60
2018-08-09T09:18:57.212Z,33.61
2018-08-09T09:20:04.362Z,33.49
2018-08-09T09:21:11.497Z,33.35
2018-08-09T09:22:18.647Z,33.31
2018-08-09T09:23:26.781Z,33.24
2018-08-09T09:24:33.417Z,33.23
2018-08-09T09:25:40.074Z,33.26
2018-08-09T09:27:54.357Z,33.15
2018-08-09T09:29:01.488Z,33.10
2018-08-09T09:30:08.629Z,33.09
2018-08-09T09:31:15.759Z,33.09
2018-08-09T09:32:22.928Z,33.30
2018-08-09T09:33:30.032Z,33.43
2018-08-09T09:34:37.268Z,33.38
2018-08-09T09:35:44.311Z,33.52
2018-08-09T09:36:51.456Z,33.64
2018-08-09T09:37:58.578Z,33.66
2018-08-09T09:39:05.717Z,33.82
2018-08-09T09:40:12.854Z,33.97
2018-08-09T09:41:20.023Z,34.08
2018-08-09T09:42:27.126Z,33.95
2018-08-09T09:43:34.249Z,33.75
2018-08-09T09:44:41.368Z,33.68
2018-08-09T09:45:48.489Z,33.43
2018-08-09T09:46:55.616Z,33.30
2018-08-09T09:48:02.734Z,33.04
2018-08-09T09:49:10.349Z,33.05
2018-08-09T09:50:16.990Z,33.20
2018-08-09T09:51:24.119Z,33.48
2018-08-09T09:52:31.261Z,33.87
2018-08-09T09:53:38.404Z,34.17
2018-08-09T09:54:45.536Z,34.36
2018-08-09T09:55:52.688Z,34.55
2018-08-09T09:56:59.847Z,34.71
2018-08-09T09:58:06.978Z,34.68
2018-08-09T09:59:14.145Z,34.84
2018-08-09T10:00:21.308Z,34.51
2018-08-09T10:01:28.483Z,34.46
2018-08-09T10:02:35.669Z,34.70
2018-08-09T10:03:42.845Z,34.96
2018-08-09T10:04:50.035Z,35.45
2018-08-09T10:05:57.250Z,35.95
2018-08-09T10:07:04.495Z,36.00
2018-08-09T10:08:11.617Z,35.87
2018-08-09T10:09:18.812Z,35.72
2018-08-09T10:10:25.996Z,35.28
2018-08-09T10:11:33.275Z,34.93
2018-08-09T10:12:40.368Z,34.57
2018-08-09T10:13:47.501Z,34.09
2018-08-09T10:14:54.656Z,34.10
2018-08-09T10:16:01.794Z,34.11
2018-08-09T10:17:08.940Z,34.27
2018-08-09T10:18:16.062Z,34.43
2018-08-09T10:19:23.699Z,34.53
2018-08-09T10:20:30.338Z,34.53
2018-08-09T10:21:37.488Z,34.51
2018-08-09T10:22:44.655Z,34.63
2018-08-09T10:23:51.807Z,34.66
2018-08-09T10:24:58.981Z,34.78
2018-08-09T10:26:06.133Z,34.91
2018-08-09T10:27:13.325Z,35.16
2018-08-09T10:28:20.489Z,35.65
2018-08-09T10:29:27.668Z,35.92
2018-08-09T10:30:35.344Z,35.84
2018-08-09T10:31:42.007Z,35.64
2018-08-09T10:32:49.294Z,35.48
2018-08-09T10:33:56.337Z,35.23
2018-08-09T10:35:03.483Z,34.94
2018-08-09T10:36:10.636Z,34.60
2018-08-09T10:37:17.791Z,34.53
2018-08-09T10:38:24.909Z,34.37
2018-08-09T10:39:32.055Z,34.24
2018-08-09T10:40:39.174Z,34.18
2018-08-09T10:41:46.322Z,34.18
2018-08-09T10:42:53.460Z,34.10
2018-08-09T10:44:00.573Z,34.06
2018-08-09T10:45:07.717Z,33.96
2018-08-09T10:46:14.850Z,33.94
2018-08-09T10:47:21.980Z,34.04
2018-08-09T10:48:29.108Z,34.06
2018-08-09T10:49:36.218Z,33.93
2018-08-09T10:50:43.355Z,33.88
2018-08-09T10:51:50.464Z,33.95
2018-08-09T10:52:57.598Z,34.01
2018-08-09T10:54:04.692Z,34.00
2018-08-09T10:55:11.804Z,34.03
2018-08-09T10:56:18.904Z,34.04
2018-08-09T10:57:26.029Z,33.98
2018-08-09T10:58:33.125Z,34.00
2018-08-09T10:59:40.225Z,34.12
2018-08-09T11:00:47.340Z,34.11
2018-08-09T11:01:54.470Z,33.99
2018-08-09T11:03:01.561Z,33.93
2018-08-09T11:04:08.664Z,34.04
2018-08-09T11:05:15.770Z,34.01
2018-08-09T11:06:22.876Z,33.79
2018-08-09T11:07:29.985Z,33.68
2018-08-09T11:08:37.143Z,33.69
2018-08-09T11:09:44.293Z,33.74
2018-08-09T11:10:51.299Z,33.95
2018-08-09T11:11:58.407Z,34.02
2018-08-09T11:13:05.526Z,34.02
2018-08-09T11:14:13.636Z,34.19
2018-08-09T11:15:19.765Z,34.33
2018-08-09T11:16:26.894Z,34.33
2018-08-09T11:17:34.076Z,34.30
2018-08-09T11:18:41.765Z,34.46
2018-08-09T11:19:48.568Z,34.55
2018-08-09T11:20:55.926Z,34.57
2018-08-09T11:22:03.351Z,34.57
2018-08-09T11:23:10.829Z,34.54
2018-08-09T11:24:18.355Z,34.63
2018-08-09T11:25:25.942Z,34.71
2018-08-09T11:26:33.585Z,34.83
2018-08-09T11:27:41.251Z,34.96
2018-08-09T11:28:48.974Z,35.11
2018-08-09T11:29:56.710Z,35.03
2018-08-09T11:31:04.400Z,34.94
2018-08-09T11:32:12.052Z,34.94
2018-08-09T11:33:19.669Z,34.87
2018-08-09T11:34:27.224Z,34.90
2018-08-09T11:35:34.801Z,35.14
2018-08-09T11:36:42.448Z,35.43
2018-08-09T11:37:50.127Z,35.65
2018-08-09T11:38:57.761Z,35.68
2018-08-09T11:40:05.857Z,35.80
2018-08-09T11:41:12.949Z,35.91
2018-08-09T11:42:21.047Z,36.09
2018-08-09T11:43:28.146Z,36.01
2018-08-09T11:44:35.682Z,35.75
2018-08-09T11:45:43.222Z,35.58
2018-08-09T11:46:50.830Z,35.70
2018-08-09T11:47:58.465Z,35.83
2018-08-09T11:49:06.086Z,35.58
2018-08-09T11:50:13.583Z,35.41
2018-08-09T11:51:21.074Z,35.28
2018-08-09T11:52:28.524Z,35.27
2018-08-09T11:53:35.992Z,35.42
2018-08-09T11:54:43.461Z,35.42
2018-08-09T11:55:50.894Z,35.48
2018-08-09T11:56:58.405Z,35.43
2018-08-09T11:58:05.729Z,35.63
2018-08-09T11:59:13.143Z,35.95
2018-08-09T12:00:20.498Z,36.07
2018-08-09T12:01:27.878Z,36.02
2018-08-09T12:02:35.259Z,35.87
2018-08-09T12:03:42.555Z,35.77
2018-08-09T12:04:50.374Z,35.83
2018-08-09T12:05:57.214Z,35.73
2018-08-09T12:07:04.519Z,35.65
2018-08-09T12:08:11.821Z,35.57
2018-08-09T12:09:19.145Z,35.51
2018-08-09T12:10:26.446Z,35.84
2018-08-09T12:11:33.798Z,36.33
2018-08-09T12:12:41.205Z,36.85
2018-08-09T12:13:48.675Z,36.99
2018-08-09T12:14:56.144Z,36.81
2018-08-09T12:16:03.574Z,36.80
2018-08-09T12:17:11.027Z,36.45
2018-08-09T12:18:18.491Z,36.37
2018-08-09T12:19:26.426Z,36.26
2018-08-09T12:20:33.375Z,36.16
2018-08-09T12:21:40.799Z,36.09
2018-08-09T12:22:48.216Z,35.91
2018-08-09T12:23:55.604Z,35.97
2018-08-09T12:25:03.002Z,36.20
2018-08-09T12:26:10.386Z,36.45
2018-08-09T12:27:17.798Z,36.48
2018-08-09T12:28:25.264Z,36.58
2018-08-09T12:29:32.792Z,36.89
2018-08-09T12:30:40.349Z,37.09
2018-08-09T12:31:47.934Z,37.20
2018-08-09T12:32:55.517Z,37.37
2018-08-09T12:34:03.628Z,37.69
2018-08-09T12:35:10.782Z,37.99
2018-08-09T12:36:18.507Z,38.38
2018-08-09T12:37:26.157Z,38.57
2018-08-09T12:38:33.853Z,38.41
2018-08-09T12:39:41.546Z,38.42
2018-08-09T12:40:49.246Z,38.53
2018-08-09T12:41:56.933Z,38.60
2018-08-09T12:43:04.610Z,38.56
2018-08-09T12:44:12.272Z,38.74
2018-08-09T12:45:19.977Z,38.90
2018-08-09T12:46:27.604Z,38.83
2018-08-09T12:47:36.242Z,38.97
2018-08-09T12:48:42.928Z,38.89
2018-08-09T12:49:51.008Z,38.78
2018-08-09T12:50:58.080Z,38.76
2018-08-09T12:52:05.681Z,38.70
2018-08-09T12:53:13.258Z,38.70
2018-08-09T12:54:20.808Z,38.61
2018-08-09T12:55:28.348Z,38.43
2018-08-09T12:56:35.859Z,38.40
2018-08-09T12:57:43.358Z,38.26
2018-08-09T12:58:50.849Z,38.17
2018-08-09T12:59:58.312Z,38.07
2018-08-09T13:01:05.747Z,38.04
2018-08-09T13:02:13.278Z,38.06
2018-08-09T13:03:20.626Z,37.98
2018-08-09T13:04:28.038Z,37.85
2018-08-09T13:05:35.451Z,37.84
2018-08-09T13:06:42.859Z,37.79
2018-08-09T13:07:50.246Z,37.70
2018-08-09T13:08:57.650Z,37.76
2018-08-09T13:10:05.024Z,37.77
2018-08-09T13:11:12.419Z,37.79
2018-08-09T13:12:19.794Z,37.61
2018-08-09T13:13:27.284Z,37.47
2018-08-09T13:14:34.552Z,37.34
2018-08-09T13:15:41.898Z,37.48
2018-08-09T13:16:49.271Z,37.59
2018-08-09T13:17:56.632Z,37.67
2018-08-09T13:19:03.989Z,37.78
2018-08-09T13:20:11.323Z,37.61
2018-08-09T13:21:18.655Z,37.10
2018-08-09T13:22:25.964Z,36.93
2018-08-09T13:23:33.345Z,36.55
2018-08-09T13:24:40.563Z,36.31
2018-08-09T13:25:47.850Z,36.11
2018-08-09T13:26:55.117Z,35.87
2018-08-09T13:28:02.367Z,35.75
2018-08-09T13:29:09.636Z,35.46
2018-08-09T13:30:16.871Z,34.85
2018-08-09T13:31:24.073Z,33.74
2018-08-09T13:32:31.262Z,32.73
2018-08-09T13:33:38.502Z,31.97
2018-08-09T13:34:45.612Z,31.55
2018-08-09T13:35:53.283Z,31.03
2018-08-09T13:36:59.885Z,30.62
2018-08-09T13:38:06.993Z,30.42
2018-08-09T13:39:14.083Z,30.08
2018-08-09T13:40:21.263Z,29.76
2018-08-09T13:41:28.228Z,29.53
2018-08-09T13:42:35.282Z,29.42
2018-08-09T13:43:42.334Z,29.32
2018-08-09T13:44:49.379Z,29.12
2018-08-09T13:45:56.432Z,29.23
2018-08-09T13:47:03.489Z,29.55
2018-08-09T13:48:11.088Z,29.94
2018-08-09T13:49:17.644Z,29.71
2018-08-09T13:50:24.697Z,29.72
2018-08-09T13:51:31.812Z,29.87
2018-08-09T13:52:38.869Z,30.11
2018-08-09T13:53:45.921Z,30.05
2018-08-09T13:54:53.494Z,30.11
2018-08-09T13:56:00.537Z,29.87
2018-08-09T13:57:07.600Z,29.51
2018-08-09T13:58:14.154Z,29.02
2018-08-09T13:59:21.200Z,28.53
2018-08-09T14:00:28.220Z,28.08
2018-08-09T14:01:35.245Z,28.13
2018-08-09T14:02:42.254Z,28.34
2018-08-09T14:03:49.272Z,28.30
2018-08-09T14:04:56.247Z,28.26
2018-08-09T14:06:03.227Z,27.93
2018-08-09T14:07:10.206Z,27.73
2018-08-09T14:08:17.269Z,27.65
2018-08-09T14:09:24.123Z,27.35
2018-08-09T14:10:31.088Z,27.10
2018-08-09T14:11:38.001Z,27.04
2018-08-09T14:12:44.941Z,26.89
2018-08-09T14:13:51.884Z,26.74
2018-08-09T14:14:58.805Z,26.66
2018-08-09T14:16:05.756Z,26.80
2018-08-09T14:17:12.644Z,26.80
2018-08-09T14:18:19.566Z,26.72
2018-08-09T14:19:26.466Z,26.73
2018-08-09T14:20:33.368Z,26.59
2018-08-09T14:21:40.259Z,26.36